Time;durP1;ratioP1;P1;durP2;ratioP2;P2;SDS_P1;SDS_P2;PMS_P1;PMS_P2;Temp;Humidity;BMP_temperature;BMP_pressure;BME280_temperature;BME280_humidity;BME280_pressure;Samples;Min_cycle;Max_cycle;Signal;HPM_P1;HPM_P2
2023/07/13 00:00:16;;;;;;;9.53;1.93;;;23.40;61.70;;;;;;5105587;28;20523;-81
2023/07/13 00:02:46;;;;;;;4.20;1.60;;;23.40;61.60;;;;;;5107226;28;20465;-81
2023/07/13 00:05:14;;;;;;;5.70;2.17;;;23.30;61.60;;;;;;5109253;27;20455;-80
2023/07/13 00:07:52;;;;;;;8.60;1.97;;;23.30;61.70;;;;;;5102155;28;20460;-81
2023/07/13 00:10:23;;;;;;;5.27;2.03;;;23.30;61.70;;;;;;5107182;28;20977;-79
2023/07/13 00:12:54;;;;;;;6.23;2.00;;;23.20;61.90;;;;;;5105884;28;20810;-81
2023/07/13 00:15:27;;;;;;;6.70;2.03;;;23.20;61.90;;;;;;5103055;28;20468;-81
2023/07/13 00:17:56;;;;;;;6.57;2.23;;;23.20;61.90;;;;;;5104080;28;20448;-79
2023/07/13 00:20:26;;;;;;;8.00;2.03;;;23.20;62.00;;;;;;5104574;28;20547;-80
2023/07/13 00:22:56;;;;;;;6.10;2.30;;;23.10;62.00;;;;;;5101253;28;20448;-80
2023/07/13 00:25:28;;;;;;;5.40;2.00;;;23.00;62.00;;;;;;5103404;28;20462;-82
2023/07/13 00:27:57;;;;;;;5.43;2.50;;;23.00;62.00;;;;;;5106512;28;20448;-79
2023/07/13 00:30:28;;;;;;;4.93;2.03;;;22.90;62.00;;;;;;5102521;28;20456;-81
2023/07/13 00:33:06;;;;;;;4.60;1.90;;;22.80;62.10;;;;;;5097621;28;20451;-81
2023/07/13 00:35:46;;;;;;;5.47;2.00;;;22.80;62.20;;;;;;5098490;28;20476;-80
2023/07/13 00:38:18;;;;;;;5.73;2.53;;;22.70;62.30;;;;;;5107531;28;20954;-80
2023/07/13 00:40:47;;;;;;;6.30;2.00;;;22.70;62.30;;;;;;5108781;28;20889;-80
2023/07/13 00:43:18;;;;;;;5.10;2.03;;;22.60;62.40;;;;;;5108511;28;20573;-80
2023/07/13 00:46:17;;;;;;;7.20;2.40;;;22.60;62.50;;;;;;5120856;27;20453;-80
2023/07/13 00:48:49;;;;;;;8.37;2.60;;;22.60;62.50;;;;;;5103670;28;20776;-81
2023/07/13 00:51:30;;;;;;;5.77;2.17;;;22.50;62.60;;;;;;5104371;28;21014;-80
2023/07/13 00:54:06;;;;;;;5.63;2.43;;;22.50;62.60;;;;;;5099724;28;20958;-81
2023/07/13 00:56:35;;;;;;;6.80;2.30;;;22.40;62.80;;;;;;5104641;28;20560;-80
2023/07/13 00:59:11;;;;;;;5.23;2.47;;;22.40;62.80;;;;;;5099990;28;20494;-80
2023/07/13 01:01:44;;;;;;;5.83;1.87;;;22.40;62.60;;;;;;5097919;27;20480;-80
2023/07/13 01:04:14;;;;;;;5.83;1.80;;;22.40;62.60;;;;;;5105169;28;20494;-80
2023/07/13 01:06:44;;;;;;;5.63;2.30;;;22.40;62.60;;;;;;5106036;28;20456;-81
2023/07/13 01:09:17;;;;;;;5.40;1.97;;;22.40;62.60;;;;;;5112389;27;22090;-80
2023/07/13 01:11:46;;;;;;;6.07;2.30;;;22.40;62.60;;;;;;5102706;28;20459;-80
2023/07/13 01:14:16;;;;;;;8.17;2.10;;;22.30;62.50;;;;;;5101966;28;20470;-80
2023/07/13 01:16:48;;;;;;;5.87;2.40;;;22.30;62.50;;;;;;5104400;28;20468;-79
2023/07/13 01:19:35;;;;;;;7.37;2.00;;;22.30;62.40;;;;;;5098267;28;20491;-80
2023/07/13 01:22:08;;;;;;;6.13;2.20;;;22.30;62.30;;;;;;5100882;28;20466;-79
2023/07/13 01:24:37;;;;;;;5.43;2.10;;;22.30;62.30;;;;;;5095689;28;20526;-81
2023/07/13 01:27:06;;;;;;;6.00;2.10;;;22.20;62.30;;;;;;5099337;28;20806;-82
2023/07/13 01:29:41;;;;;;;7.43;2.10;;;22.20;62.30;;;;;;5100474;28;20876;-80
2023/07/13 01:32:22;;;;;;;7.20;2.27;;;22.20;62.30;;;;;;5100161;28;20510;-80
2023/07/13 01:34:54;;;;;;;4.93;1.93;;;22.20;62.20;;;;;;5096470;28;21017;-80
2023/07/13 01:37:24;;;;;;;8.17;2.30;;;22.20;62.20;;;;;;5098877;28;20472;-81
2023/07/13 01:39:55;;;;;;;6.10;2.57;;;22.20;62.10;;;;;;5099941;28;20536;-80
2023/07/13 01:42:26;;;;;;;6.23;1.93;;;22.20;62.00;;;;;;5101303;28;20509;-80
2023/07/13 01:44:54;;;;;;;5.97;2.37;;;22.20;61.90;;;;;;5122710;27;20929;-80
2023/07/13 01:47:27;;;;;;;4.53;1.90;;;22.20;61.90;;;;;;5104659;28;20467;-80
2023/07/13 01:49:57;;;;;;;5.80;2.13;;;22.10;61.80;;;;;;5097866;28;21041;-80
2023/07/13 01:52:31;;;;;;;5.83;1.90;;;22.10;61.80;;;;;;5102709;28;20479;-80
2023/07/13 01:54:59;;;;;;;5.83;1.90;;;22.10;61.80;;;;;;5105065;28;20480;-80
2023/07/13 01:57:27;;;;;;;5.50;2.07;;;22.00;61.80;;;;;;5099596;28;20577;-80
2023/07/13 01:59:58;;;;;;;9.53;2.37;;;22.00;61.80;;;;;;5103608;28;20464;-80
2023/07/13 02:02:27;;;;;;;5.80;2.00;;;22.00;61.90;;;;;;5102732;28;20477;-80
2023/07/13 02:04:55;;;;;;;7.00;2.50;;;21.90;61.90;;;;;;5103354;28;20452;-79
2023/07/13 02:07:24;;;;;;;4.40;1.67;;;21.90;61.90;;;;;;5108020;28;20478;-80
2023/07/13 02:09:54;;;;;;;5.00;2.00;;;21.90;61.90;;;;;;5109581;28;20555;-80
2023/07/13 02:12:24;;;;;;;4.77;2.00;;;21.90;61.90;;;;;;5106393;28;20977;-80
2023/07/13 02:14:54;;;;;;;6.03;2.27;;;21.80;61.90;;;;;;5108973;28;20538;-79
2023/07/13 02:17:27;;;;;;;5.23;2.27;;;21.80;61.80;;;;;;5097487;28;20476;-79
2023/07/13 02:20:00;;;;;;;5.70;2.00;;;21.80;61.80;;;;;;5102775;28;20598;-80
2023/07/13 02:22:29;;;;;;;9.30;2.33;;;21.70;61.80;;;;;;5109689;28;20552;-81
2023/07/13 02:24:59;;;;;;;11.20;2.20;;;21.70;61.80;;;;;;5101377;28;20456;-81
2023/07/13 02:27:33;;;;;;;9.87;2.30;;;21.70;61.80;;;;;;5106093;28;20444;-80
2023/07/13 02:30:02;;;;;;;11.40;2.70;;;21.70;61.90;;;;;;5113669;27;20459;-80
2023/07/13 02:32:32;;;;;;;7.80;2.00;;;21.60;61.90;;;;;;5108098;28;20575;-80
2023/07/13 02:35:02;;;;;;;8.10;2.30;;;21.60;62.00;;;;;;5103303;28;20457;-80
2023/07/13 02:37:30;;;;;;;7.47;2.50;;;21.60;62.00;;;;;;5106686;28;20480;-80
2023/07/13 02:40:03;;;;;;;7.17;2.10;;;21.60;62.00;;;;;;5104223;28;20479;-80
2023/07/13 02:42:30;;;;;;;5.03;2.10;;;21.60;62.00;;;;;;5102849;28;20488;-80
2023/07/13 02:45:01;;;;;;;5.60;2.17;;;21.60;62.00;;;;;;5100996;28;20548;-81
2023/07/13 02:47:29;;;;;;;6.70;2.13;;;21.50;62.00;;;;;;5105705;28;20483;-81
2023/07/13 02:50:00;;;;;;;4.93;2.17;;;21.40;61.90;;;;;;5109093;28;21002;-81
2023/07/13 02:52:30;;;;;;;6.70;1.90;;;21.40;62.00;;;;;;5110527;27;20950;-81
2023/07/13 02:55:00;;;;;;;5.47;2.23;;;21.30;62.10;;;;;;5103601;28;20526;-81
2023/07/13 02:57:30;;;;;;;7.67;2.00;;;21.30;62.20;;;;;;5106270;27;20560;-81
2023/07/13 03:00:05;;;;;;;8.60;2.50;;;21.30;62.30;;;;;;5104906;28;20481;-82
2023/07/13 03:02:39;;;;;;;6.80;2.63;;;21.30;62.40;;;;;;5107852;28;20547;-81
2023/07/13 03:05:12;;;;;;;6.73;2.30;;;21.30;62.40;;;;;;5106428;28;20471;-81
2023/07/13 03:07:44;;;;;;;7.70;2.50;;;21.20;62.40;;;;;;5106558;28;20494;-81
2023/07/13 03:10:14;;;;;;;6.10;2.87;;;21.20;62.40;;;;;;5107063;28;20467;-81
2023/07/13 03:12:47;;;;;;;5.70;2.50;;;21.20;62.60;;;;;;5102410;28;20464;-81
2023/07/13 03:15:22;;;;;;;6.83;2.63;;;21.10;62.60;;;;;;5108285;28;20455;-81
2023/07/13 03:17:52;;;;;;;6.37;2.47;;;21.10;62.60;;;;;;5110988;27;20830;-80
2023/07/13 03:20:21;;;;;;;7.23;2.47;;;21.10;62.70;;;;;;5114104;27;20805;-79
2023/07/13 03:22:50;;;;;;;4.87;1.97;;;21.00;62.80;;;;;;5106653;28;20962;-80
2023/07/13 03:25:21;;;;;;;5.57;2.40;;;21.00;62.90;;;;;;5107047;28;21061;-80
2023/07/13 03:27:49;;;;;;;8.87;2.50;;;20.90;62.90;;;;;;5107297;28;20444;-80
2023/07/13 03:30:20;;;;;;;6.90;2.50;;;20.90;63.00;;;;;;5108239;28;20535;-80
2023/07/13 03:32:50;;;;;;;7.07;2.60;;;20.90;63.00;;;;;;5103000;28;20459;-78
2023/07/13 03:35:19;;;;;;;6.60;2.67;;;20.90;63.20;;;;;;5103883;28;20558;-80
2023/07/13 03:37:47;;;;;;;7.20;2.67;;;20.80;63.10;;;;;;5104642;28;20938;-81
2023/07/13 03:40:33;;;;;;;5.97;2.60;;;20.60;63.10;;;;;;5110208;28;20460;-81
2023/07/13 03:43:03;;;;;;;5.60;2.40;;;20.50;63.40;;;;;;5106012;28;20553;-80
2023/07/13 03:45:39;;;;;;;7.43;2.43;;;20.40;63.60;;;;;;5103819;28;20457;-79
2023/07/13 03:48:16;;;;;;;6.90;2.00;;;20.40;63.80;;;;;;5107780;28;20453;-79
2023/07/13 03:50:51;;;;;;;7.90;2.90;;;20.40;63.90;;;;;;5106620;28;20988;-80
2023/07/13 03:53:19;;;;;;;11.13;3.23;;;20.40;64.10;;;;;;5106838;28;20455;-80
2023/07/13 03:55:53;;;;;;;10.73;4.00;;;20.40;64.10;;;;;;5106354;28;20459;-81
2023/07/13 03:58:30;;;;;;;9.93;2.90;;;20.40;64.20;;;;;;5104012;28;20528;-80
2023/07/13 04:01:06;;;;;;;6.60;2.50;;;20.40;64.40;;;;;;5111218;28;20487;-81
2023/07/13 04:03:35;;;;;;;5.20;2.60;;;20.50;64.40;;;;;;5111082;28;20480;-80
2023/07/13 04:06:07;;;;;;;8.33;2.50;;;20.50;64.50;;;;;;5105405;28;20457;-81
2023/07/13 04:08:38;;;;;;;5.67;2.87;;;20.50;64.50;;;;;;5107900;28;20495;-81
2023/07/13 04:11:08;;;;;;;6.90;2.70;;;20.50;64.50;;;;;;5122735;27;21165;-81
2023/07/13 04:13:38;;;;;;;6.00;2.50;;;20.50;64.70;;;;;;5106521;28;20456;-81
2023/07/13 04:16:16;;;;;;;6.03;2.53;;;20.60;64.70;;;;;;5100657;27;20508;-81
2023/07/13 04:18:48;;;;;;;7.43;3.33;;;20.60;64.80;;;;;;5103141;28;20473;-81
2023/07/13 04:21:18;;;;;;;5.50;2.70;;;20.60;64.90;;;;;;5099777;28;20540;-81
2023/07/13 04:23:46;;;;;;;7.00;2.40;;;20.70;64.90;;;;;;5100423;28;21190;-81
2023/07/13 04:26:17;;;;;;;6.50;2.80;;;20.70;65.00;;;;;;5105020;28;20492;-81
2023/07/13 04:28:49;;;;;;;7.10;2.87;;;20.80;65.10;;;;;;5102644;28;20455;-80
2023/07/13 04:31:17;;;;;;;5.30;2.40;;;20.80;65.20;;;;;;5104410;28;20496;-81
2023/07/13 04:33:45;;;;;;;5.70;2.43;;;20.90;65.20;;;;;;5094513;28;20457;-79
2023/07/13 04:36:16;;;;;;;6.10;2.30;;;21.10;65.30;;;;;;5105901;28;20451;-81
2023/07/13 04:38:44;;;;;;;5.10;2.50;;;21.20;65.30;;;;;;5105054;28;21222;-81
2023/07/13 04:41:14;;;;;;;7.80;2.67;;;21.40;65.20;;;;;;5102633;28;20492;-80
2023/07/13 04:43:44;;;;;;;5.90;2.10;;;21.60;65.10;;;;;;5103693;27;20482;-81
2023/07/13 04:46:15;;;;;;;6.23;2.63;;;21.70;64.80;;;;;;5102489;28;20466;-79
2023/07/13 04:48:43;;;;;;;6.50;2.70;;;21.90;64.60;;;;;;5103325;28;20546;-79
2023/07/13 04:51:11;;;;;;;6.37;2.80;;;22.00;64.30;;;;;;5107612;28;21053;-79
2023/07/13 04:53:39;;;;;;;10.50;2.30;;;22.00;64.10;;;;;;5100279;28;20958;-80
2023/07/13 04:56:07;;;;;;;7.40;2.40;;;22.00;64.10;;;;;;5104046;28;20475;-79
2023/07/13 04:58:35;;;;;;;6.57;2.40;;;22.00;64.10;;;;;;5104014;28;20495;-80
2023/07/13 05:01:06;;;;;;;7.13;2.50;;;21.90;64.10;;;;;;5108762;28;20476;-80
2023/07/13 05:03:39;;;;;;;6.47;2.60;;;21.90;64.10;;;;;;5106699;28;20923;-80
2023/07/13 05:06:10;;;;;;;7.13;2.17;;;21.80;64.20;;;;;;5100759;28;20677;-79
2023/07/13 05:08:38;;;;;;;5.70;2.67;;;21.80;64.20;;;;;;5105952;28;20436;-80
2023/07/13 05:11:07;;;;;;;5.17;2.33;;;21.80;64.20;;;;;;5098231;28;20516;-80
2023/07/13 05:13:36;;;;;;;6.43;2.73;;;21.80;64.20;;;;;;5103030;28;20452;-80
2023/07/13 05:16:07;;;;;;;6.23;2.80;;;21.80;64.20;;;;;;5107285;28;20476;-81
2023/07/13 05:18:35;;;;;;;8.03;2.70;;;21.80;64.40;;;;;;5109351;28;20829;-81
2023/07/13 05:21:05;;;;;;;7.27;2.40;;;22.00;64.50;;;;;;5110256;28;21195;-81
2023/07/13 05:23:35;;;;;;;6.30;2.40;;;22.10;64.60;;;;;;5107929;28;20448;-81
2023/07/13 05:26:03;;;;;;;5.90;2.20;;;22.30;64.50;;;;;;5106585;28;20527;-82
2023/07/13 05:28:36;;;;;;;5.97;2.33;;;22.50;64.40;;;;;;5099790;28;20444;-81
2023/07/13 05:31:05;;;;;;;9.10;2.53;;;22.70;64.50;;;;;;5100697;28;20541;-81
2023/07/13 05:33:34;;;;;;;11.20;2.87;;;22.90;64.60;;;;;;5106966;28;20466;-80
2023/07/13 05:36:02;;;;;;;6.90;2.57;;;23.20;64.80;;;;;;5106980;28;20559;-82
2023/07/13 05:38:30;;;;;;;6.37;2.60;;;23.50;64.90;;;;;;5105992;28;20553;-81
2023/07/13 05:40:58;;;;;;;10.60;3.00;;;23.90;64.70;;;;;;5102026;28;20453;-81
2023/07/13 05:43:29;;;;;;;9.50;2.50;;;24.60;64.10;;;;;;5101482;28;20525;-82
2023/07/13 05:45:58;;;;;;;6.77;2.60;;;25.60;62.50;;;;;;5104122;27;20484;-82
2023/07/13 05:48:27;;;;;;;6.90;1.93;;;26.40;60.80;;;;;;5105351;28;20477;-81
2023/07/13 05:50:55;;;;;;;9.03;2.00;;;26.90;59.90;;;;;;5103434;28;21095;-81
2023/07/13 05:53:23;;;;;;;6.10;2.13;;;27.60;58.80;;;;;;5104265;28;20455;-81
2023/07/13 05:55:52;;;;;;;5.50;1.93;;;28.40;57.60;;;;;;5107519;28;20456;-81
2023/07/13 05:58:24;;;;;;;8.13;2.10;;;29.20;56.30;;;;;;5103697;28;21017;-82
2023/07/13 06:01:01;;;;;;;6.17;1.77;;;29.70;54.70;;;;;;5101607;28;20547;-81
2023/07/13 06:03:31;;;;;;;6.00;2.10;;;30.10;53.70;;;;;;5099915;28;20468;-82
2023/07/13 06:06:00;;;;;;;6.27;1.87;;;30.40;53.00;;;;;;5099749;28;20891;-81
2023/07/13 06:08:29;;;;;;;7.97;1.93;;;30.80;52.50;;;;;;5099698;28;20513;-81
2023/07/13 06:11:07;;;;;;;6.57;1.77;;;31.10;51.60;;;;;;5099992;28;20959;-81
2023/07/13 06:13:36;;;;;;;5.83;1.67;;;31.60;50.40;;;;;;5106188;28;20463;-82
2023/07/13 06:16:05;;;;;;;7.10;2.13;;;32.40;49.70;;;;;;5099659;28;20455;-82
2023/07/13 06:18:36;;;;;;;6.63;1.40;;;32.80;48.20;;;;;;5101964;28;20471;-82
2023/07/13 06:21:08;;;;;;;5.60;1.70;;;32.70;47.40;;;;;;5096370;28;20526;-81
2023/07/13 06:23:39;;;;;;;6.50;2.00;;;32.20;47.40;;;;;;5100345;28;20470;-81
2023/07/13 06:26:13;;;;;;;5.30;1.47;;;31.60;47.80;;;;;;5095688;28;20461;-80
2023/07/13 06:28:41;;;;;;;6.00;1.50;;;31.20;47.60;;;;;;5099630;28;20454;-81
2023/07/13 06:31:12;;;;;;;6.93;1.60;;;30.50;47.90;;;;;;5101954;28;20434;-80
2023/07/13 06:33:48;;;;;;;6.23;1.47;;;29.90;47.90;;;;;;5096366;28;20461;-82
2023/07/13 06:36:21;;;;;;;8.87;1.60;;;29.10;48.20;;;;;;5101441;28;20466;-81
2023/07/13 06:38:50;;;;;;;5.07;1.57;;;28.20;48.60;;;;;;5099892;28;20479;-81
2023/07/13 06:41:18;;;;;;;7.07;1.40;;;27.40;49.40;;;;;;5097407;28;20516;-81
2023/07/13 06:44:07;;;;;;;5.30;1.67;;;26.80;50.00;;;;;;5101076;28;20490;-80
2023/07/13 06:46:35;;;;;;;5.10;1.60;;;26.20;50.70;;;;;;5089935;28;20875;-80
2023/07/13 06:49:09;;;;;;;5.10;1.60;;;25.70;51.20;;;;;;5094690;28;20453;-80
2023/07/13 06:51:37;;;;;;;10.80;2.37;;;25.40;51.70;;;;;;5103991;28;20467;-82
2023/07/13 06:54:05;;;;;;;5.00;1.63;;;25.10;52.20;;;;;;5105503;28;20456;-80
2023/07/13 06:57:50;;;;;;;8.30;2.50;;;24.90;52.50;;;;;;5016453;28;20599;-80
2023/07/13 07:00:18;;;;;;;5.50;1.50;;;24.70;53.00;;;;;;5024117;28;20893;-80
2023/07/13 07:02:46;;;;;;;5.13;1.50;;;24.50;53.20;;;;;;5028023;28;20479;-80
2023/07/13 07:05:16;;;;;;;5.90;1.80;;;24.30;53.70;;;;;;5034480;28;20455;-80
2023/07/13 07:07:48;;;;;;;4.40;1.10;;;24.10;53.80;;;;;;5030842;28;20538;-80
2023/07/13 07:10:16;;;;;;;7.00;2.00;;;24.00;53.90;;;;;;5030383;28;20957;-80
2023/07/13 07:12:44;;;;;;;8.43;1.90;;;23.90;54.10;;;;;;5034957;28;20545;-80
2023/07/13 07:15:14;;;;;;;11.90;1.97;;;23.90;54.30;;;;;;5029773;28;20972;-81
2023/07/13 07:17:42;;;;;;;4.50;1.30;;;23.90;54.50;;;;;;5029899;28;20562;-81
2023/07/13 07:20:11;;;;;;;5.50;1.57;;;23.80;54.60;;;;;;5036459;28;20503;-79
2023/07/13 07:22:40;;;;;;;7.43;1.60;;;23.80;54.60;;;;;;5110111;28;20447;-80
2023/07/13 07:25:08;;;;;;;7.70;1.63;;;23.90;54.60;;;;;;5108122;28;20452;-79
2023/07/13 07:27:36;;;;;;;6.03;1.47;;;23.80;54.70;;;;;;5106738;28;20556;-81
2023/07/13 07:30:08;;;;;;;6.20;1.43;;;23.80;54.70;;;;;;5108291;28;20440;-80
2023/07/13 07:32:39;;;;;;;5.83;1.30;;;23.80;54.80;;;;;;5111643;28;20470;-79
2023/07/13 07:35:10;;;;;;;5.30;1.40;;;23.80;54.90;;;;;;5105613;28;20452;-80
2023/07/13 07:37:57;;;;;;;5.20;1.23;;;23.80;54.80;;;;;;5106918;28;20448;-80
2023/07/13 07:40:26;;;;;;;6.37;1.63;;;23.80;54.80;;;;;;5101549;28;20476;-80
2023/07/13 07:42:57;;;;;;;5.40;1.53;;;23.80;54.80;;;;;;5106215;28;21000;-80
2023/07/13 07:45:25;;;;;;;6.90;1.80;;;23.90;54.70;;;;;;5114010;27;20462;-81
2023/07/13 07:47:54;;;;;;;6.10;1.80;;;23.90;54.60;;;;;;5100505;28;20451;-80
2023/07/13 07:50:22;;;;;;;5.93;1.70;;;23.80;54.50;;;;;;5106948;28;20495;-81
2023/07/13 07:52:51;;;;;;;8.13;1.50;;;23.80;54.70;;;;;;5100476;28;21084;-80
2023/07/13 07:55:20;;;;;;;5.97;1.73;;;23.80;54.80;;;;;;5104407;28;20460;-79
2023/07/13 07:57:51;;;;;;;6.07;1.87;;;23.90;54.80;;;;;;5104904;28;20456;-80
2023/07/13 08:00:22;;;;;;;5.70;1.50;;;23.90;54.80;;;;;;5109121;28;20464;-79
2023/07/13 08:02:53;;;;;;;6.20;1.70;;;24.00;54.70;;;;;;5102411;27;20475;-79
2023/07/13 08:05:24;;;;;;;4.73;1.17;;;24.00;54.60;;;;;;5108782;28;20467;-79
2023/07/13 08:08:09;;;;;;;6.60;1.67;;;24.10;54.60;;;;;;5112711;28;20458;-79
2023/07/13 08:10:39;;;;;;;7.97;1.93;;;24.10;54.20;;;;;;5103415;28;20448;-78
2023/07/13 08:13:07;;;;;;;6.30;1.93;;;24.10;54.00;;;;;;5099000;28;20512;-79
2023/07/13 08:15:40;;;;;;;9.30;1.90;;;24.20;54.00;;;;;;5104091;28;20448;-80
2023/07/13 08:18:08;;;;;;;6.17;1.63;;;24.20;53.90;;;;;;5108996;28;20941;-79
2023/07/13 08:20:38;;;;;;;5.43;1.67;;;24.10;53.90;;;;;;5102665;27;20485;-78
2023/07/13 08:23:11;;;;;;;5.33;1.80;;;24.10;54.00;;;;;;5097827;28;20467;-79
2023/07/13 08:25:40;;;;;;;5.73;1.63;;;24.10;53.90;;;;;;5107266;28;20459;-78
2023/07/13 08:28:09;;;;;;;8.03;1.53;;;24.10;53.90;;;;;;5104243;28;20489;-78
2023/07/13 08:30:37;;;;;;;6.57;1.90;;;24.20;53.90;;;;;;5106774;28;20825;-79
2023/07/13 08:33:05;;;;;;;5.47;1.97;;;24.20;53.90;;;;;;5107152;28;20491;-78
2023/07/13 08:35:33;;;;;;;5.83;1.73;;;24.20;54.00;;;;;;5107728;28;20458;-78
2023/07/13 08:38:01;;;;;;;6.60;1.67;;;24.20;54.10;;;;;;5102453;28;20459;-78
2023/07/13 08:40:29;;;;;;;6.13;1.57;;;24.20;53.90;;;;;;5110827;28;20464;-78
2023/07/13 08:43:00;;;;;;;5.50;1.80;;;24.20;53.90;;;;;;5104380;28;20460;-77
2023/07/13 08:45:35;;;;;;;8.27;1.70;;;24.10;53.80;;;;;;5104612;28;20945;-78
2023/07/13 08:48:12;;;;;;;6.67;1.23;;;24.10;53.90;;;;;;5104303;28;20506;-78
2023/07/13 08:50:53;;;;;;;7.20;1.80;;;24.10;54.10;;;;;;5109612;28;20442;-78
2023/07/13 08:53:34;;;;;;;7.60;2.00;;;24.10;53.90;;;;;;5101475;28;20505;-79
2023/07/13 08:56:03;;;;;;;6.43;1.50;;;24.20;53.90;;;;;;5106378;27;20452;-79
2023/07/13 08:58:33;;;;;;;6.07;1.70;;;24.10;53.90;;;;;;5105608;28;20574;-78
2023/07/13 09:01:13;;;;;;;6.37;1.80;;;24.20;53.80;;;;;;5106194;28;20475;-79
2023/07/13 09:03:47;;;;;;;4.93;1.43;;;24.30;53.80;;;;;;5103653;28;20835;-78
2023/07/13 09:06:20;;;;;;;5.20;1.70;;;24.40;53.90;;;;;;5102139;28;20546;-79
2023/07/13 09:08:55;;;;;;;7.90;1.60;;;24.40;53.70;;;;;;5104967;28;20554;-79
2023/07/13 09:11:37;;;;;;;6.37;1.70;;;24.40;53.50;;;;;;5094616;28;20458;-79
2023/07/13 09:14:34;;;;;;;5.90;1.73;;;24.50;53.50;;;;;;5099546;28;20543;-79
2023/07/13 09:17:06;;;;;;;5.00;1.50;;;24.50;53.50;;;;;;5100252;28;20471;-79
2023/07/13 09:19:35;;;;;;;5.90;1.37;;;24.50;53.40;;;;;;5104663;28;20452;-79
2023/07/13 09:22:08;;;;;;;7.93;1.87;;;24.60;53.50;;;;;;5104325;28;20456;-78
2023/07/13 09:24:39;;;;;;;8.80;1.80;;;24.70;53.50;;;;;;5098720;28;20453;-79
2023/07/13 09:27:17;;;;;;;6.30;1.80;;;24.80;53.20;;;;;;5105859;28;20523;-79
2023/07/13 09:29:51;;;;;;;7.27;1.97;;;24.70;53.00;;;;;;5102292;28;20459;-79
2023/07/13 09:32:24;;;;;;;6.33;1.47;;;24.70;53.20;;;;;;5098479;28;20576;-80
2023/07/13 09:34:54;;;;;;;8.93;1.90;;;24.80;53.30;;;;;;5098502;28;20506;-78
2023/07/13 09:37:31;;;;;;;6.63;1.47;;;24.80;53.20;;;;;;5105026;28;20464;-79
2023/07/13 09:40:04;;;;;;;7.47;1.47;;;24.80;53.10;;;;;;5107923;28;20476;-79
2023/07/13 09:42:34;;;;;;;7.30;1.70;;;24.90;53.20;;;;;;5098176;28;20453;-78
2023/07/13 09:45:05;;;;;;;8.47;1.57;;;24.90;53.10;;;;;;5105237;28;20443;-79
2023/07/13 09:47:40;;;;;;;5.00;1.53;;;24.90;53.00;;;;;;5097059;28;20833;-78
2023/07/13 09:50:16;;;;;;;4.63;1.20;;;24.90;52.90;;;;;;5101352;28;20452;-78
2023/07/13 09:52:47;;;;;;;9.60;1.80;;;24.90;52.90;;;;;;5104117;28;20455;-78
2023/07/13 09:55:26;;;;;;;5.50;1.23;;;24.90;53.00;;;;;;5099058;28;20476;-78
2023/07/13 09:57:54;;;;;;;8.47;2.00;;;24.90;52.90;;;;;;5103214;28;20474;-78
2023/07/13 10:00:26;;;;;;;5.77;1.43;;;25.00;53.10;;;;;;5104296;28;20888;-78
2023/07/13 10:03:03;;;;;;;9.10;1.80;;;24.90;52.90;;;;;;5105364;28;20521;-77
2023/07/13 10:05:42;;;;;;;6.43;1.83;;;24.90;52.80;;;;;;5104331;28;20502;-77
2023/07/13 10:08:23;;;;;;;7.00;1.97;;;24.80;52.80;;;;;;5104335;28;20491;-78
2023/07/13 10:10:55;;;;;;;4.77;1.50;;;24.80;52.90;;;;;;5097259;28;20464;-77
2023/07/13 10:13:41;;;;;;;5.80;1.87;;;24.90;53.00;;;;;;5102537;28;20891;-78
2023/07/13 10:16:11;;;;;;;5.40;1.40;;;24.90;53.00;;;;;;5103839;28;20444;-79
2023/07/13 10:18:43;;;;;;;6.70;1.90;;;24.90;53.00;;;;;;5107514;28;20501;-78
2023/07/13 10:21:15;;;;;;;11.70;1.90;;;25.00;53.00;;;;;;5105717;28;20544;-78
2023/07/13 10:23:50;;;;;;;6.57;1.40;;;25.00;53.00;;;;;;5104332;28;20466;-77
2023/07/13 10:26:23;;;;;;;7.53;1.63;;;25.10;52.90;;;;;;5107383;28;20988;-79
2023/07/13 10:28:55;;;;;;;7.77;1.50;;;25.20;52.50;;;;;;5104081;27;20458;-78
2023/07/13 10:31:24;;;;;;;4.10;1.43;;;25.10;52.30;;;;;;5105651;28;20993;-78
2023/07/13 10:33:53;;;;;;;5.60;1.53;;;25.10;52.10;;;;;;5110837;28;20862;-78
2023/07/13 10:36:31;;;;;;;6.23;1.50;;;25.00;52.20;;;;;;5105768;28;20465;-79
2023/07/13 10:39:02;;;;;;;10.20;2.00;;;25.10;52.30;;;;;;5107483;28;20800;-78
2023/07/13 10:41:34;;;;;;;8.10;1.80;;;25.10;52.40;;;;;;5105919;28;20569;-79
2023/07/13 10:44:04;;;;;;;4.83;1.50;;;25.20;52.50;;;;;;5105478;28;21118;-78
2023/07/13 10:46:34;;;;;;;7.60;1.97;;;25.20;52.40;;;;;;5105393;28;20454;-78
2023/07/13 10:49:05;;;;;;;5.80;1.90;;;25.30;52.40;;;;;;5107686;28;20452;-78
2023/07/13 10:51:34;;;;;;;6.63;1.70;;;25.30;52.30;;;;;;5102103;28;20454;-79
2023/07/13 10:54:17;;;;;;;11.30;1.87;;;25.40;52.10;;;;;;5105089;28;20455;-78
2023/07/13 10:56:50;;;;;;;6.63;1.50;;;25.40;52.10;;;;;;5106101;28;20474;-78
2023/07/13 10:59:25;;;;;;;6.60;1.60;;;25.50;52.20;;;;;;5107399;28;20925;-79
2023/07/13 11:01:58;;;;;;;8.20;1.73;;;25.60;52.30;;;;;;5100684;27;20474;-79
2023/07/13 11:04:29;;;;;;;10.37;2.10;;;25.70;51.90;;;;;;5106088;28;21034;-78
2023/07/13 11:06:59;;;;;;;13.33;1.80;;;25.70;51.60;;;;;;5104990;28;20459;-78
2023/07/13 11:09:40;;;;;;;5.63;1.90;;;25.60;51.40;;;;;;5108652;27;20516;-79
2023/07/13 11:12:14;;;;;;;9.10;1.37;;;25.60;51.50;;;;;;5107489;27;20858;-79
2023/07/13 11:15:06;;;;;;;6.83;1.30;;;25.60;51.40;;;;;;5109745;28;20520;-78
2023/07/13 11:17:47;;;;;;;7.60;1.77;;;25.60;51.40;;;;;;5102212;28;20517;-78
2023/07/13 11:20:38;;;;;;;6.43;1.57;;;25.60;51.40;;;;;;5108965;28;20547;-77
2023/07/13 11:23:27;;;;;;;7.47;1.90;;;25.60;51.20;;;;;;5103887;28;20459;-78
2023/07/13 11:25:55;;;;;;;5.67;1.50;;;25.60;51.30;;;;;;5105468;27;20470;-79
2023/07/13 11:28:25;;;;;;;7.27;1.43;;;25.70;51.40;;;;;;5107268;28;20513;-78
2023/07/13 11:31:16;;;;;;;5.17;1.50;;;25.70;51.30;;;;;;5107531;28;20561;-78
2023/07/13 11:34:02;;;;;;;12.07;1.93;;;25.60;51.10;;;;;;5106288;28;20486;-79
2023/07/13 11:36:37;;;;;;;5.10;1.73;;;25.50;51.10;;;;;;5106030;28;20439;-78
2023/07/13 11:39:13;;;;;;;4.70;1.73;;;25.50;51.10;;;;;;5101383;28;20460;-79
2023/07/13 11:41:48;;;;;;;7.30;1.97;;;25.50;51.10;;;;;;5102350;28;20479;-79
2023/07/13 11:44:19;;;;;;;5.77;1.30;;;25.50;51.20;;;;;;5102154;28;20818;-79
2023/07/13 11:46:48;;;;;;;5.53;1.70;;;25.50;51.40;;;;;;5105384;28;21004;-78
2023/07/13 11:49:22;;;;;;;10.83;1.60;;;25.60;51.30;;;;;;5105005;28;20464;-79
2023/07/13 11:51:54;;;;;;;5.27;1.53;;;25.50;51.10;;;;;;5100330;28;21160;-79
2023/07/13 11:54:29;;;;;;;8.87;1.77;;;25.50;51.10;;;;;;5100833;28;20453;-78
2023/07/13 11:57:00;;;;;;;7.00;1.50;;;25.50;51.20;;;;;;5105477;28;20534;-78
2023/07/13 11:59:31;;;;;;;5.23;1.40;;;25.60;51.30;;;;;;5100987;28;20933;-79
2023/07/13 12:02:00;;;;;;;5.00;1.90;;;25.60;51.40;;;;;;5104489;28;20572;-79
2023/07/13 12:04:34;;;;;;;5.03;1.53;;;25.60;51.60;;;;;;5105484;28;20460;-78
2023/07/13 12:07:08;;;;;;;5.70;1.70;;;25.70;51.50;;;;;;5105318;28;20460;-78
2023/07/13 12:09:37;;;;;;;6.70;1.70;;;25.80;51.20;;;;;;5109184;28;20825;-79
2023/07/13 12:12:12;;;;;;;6.37;1.97;;;25.80;51.00;;;;;;5109949;28;20519;-78
2023/07/13 12:14:41;;;;;;;8.90;2.00;;;25.80;50.80;;;;;;5108895;28;20453;-77
2023/07/13 12:17:16;;;;;;;6.83;1.53;;;25.80;50.70;;;;;;5108878;28;21060;-79
2023/07/13 12:19:46;;;;;;;8.80;2.20;;;25.80;50.70;;;;;;5107425;28;20448;-78
2023/07/13 12:22:15;;;;;;;6.17;1.47;;;25.80;50.70;;;;;;5102498;28;20487;-79
2023/07/13 12:24:44;;;;;;;4.90;1.63;;;25.80;50.90;;;;;;5102871;28;20448;-77
2023/07/13 12:27:22;;;;;;;5.03;1.60;;;25.90;50.90;;;;;;5099276;28;21374;-78
2023/07/13 12:29:53;;;;;;;6.80;1.70;;;26.00;50.70;;;;;;5102842;28;20460;-77
2023/07/13 12:32:21;;;;;;;4.57;1.60;;;26.00;50.40;;;;;;5101991;28;20944;-78
2023/07/13 12:34:56;;;;;;;6.10;1.53;;;25.90;50.30;;;;;;5098253;28;20547;-78
2023/07/13 12:37:25;;;;;;;6.03;1.60;;;25.90;50.40;;;;;;5095939;28;20455;-78
2023/07/13 12:39:53;;;;;;;4.93;1.50;;;25.90;50.50;;;;;;5099581;28;20467;-78
2023/07/13 12:42:27;;;;;;;8.20;1.80;;;25.90;50.40;;;;;;5098532;28;20473;-78
2023/07/13 12:44:57;;;;;;;7.40;1.50;;;26.00;50.50;;;;;;5099781;28;20570;-77
2023/07/13 12:47:26;;;;;;;4.97;1.73;;;25.90;50.40;;;;;;5101698;28;20479;-77
2023/07/13 12:49:59;;;;;;;10.60;1.87;;;25.90;50.50;;;;;;5097880;28;20463;-77
2023/07/13 12:52:32;;;;;;;4.90;1.87;;;25.90;50.50;;;;;;5102455;28;20463;-78
2023/07/13 12:55:08;;;;;;;7.23;2.10;;;25.90;50.50;;;;;;5101099;28;20487;-77
2023/07/13 12:57:41;;;;;;;7.30;1.77;;;26.00;50.60;;;;;;5094302;28;20460;-77
2023/07/13 13:00:24;;;;;;;5.53;1.47;;;26.00;50.60;;;;;;5098874;28;20557;-77
2023/07/13 13:02:55;;;;;;;6.20;1.70;;;26.10;50.60;;;;;;5099956;28;20467;-77
2023/07/13 13:05:44;;;;;;;6.70;2.03;;;26.10;50.80;;;;;;5105054;28;21998;-78
2023/07/13 13:08:13;;;;;;;7.20;1.70;;;26.20;50.90;;;;;;5102356;28;20465;-78
2023/07/13 13:10:41;;;;;;;6.30;1.87;;;26.20;50.90;;;;;;5103574;28;20459;-78